createdAt,value
2022-09-15T00:01:56.885Z,99525.70
2022-09-15T00:04:31.520Z,99512.77
2022-09-15T00:07:06.581Z,99519.83
2022-09-15T00:09:39.908Z,99515.07
2022-09-15T00:12:17.670Z,99501.94
2022-09-15T00:14:56.146Z,99497.70
2022-09-15T00:17:32.612Z,99501.74
2022-09-15T00:20:07.495Z,99508.55
2022-09-15T00:22:41.105Z,99498.85
2022-09-15T00:25:15.273Z,99498.48
2022-09-15T00:27:48.507Z,99492.63
2022-09-15T00:30:21.485Z,99500.98
2022-09-15T00:32:55.233Z,99489.65
2022-09-15T00:35:28.759Z,99487.18
2022-09-15T00:38:02.360Z,99483.80
2022-09-15T00:40:36.194Z,99469.59
2022-09-15T00:43:13.076Z,99478.10
2022-09-15T00:45:54.382Z,99478.85
2022-09-15T00:48:28.329Z,99474.08
2022-09-15T00:51:10.203Z,99466.13
2022-09-15T00:53:51.556Z,99464.08
2022-09-15T00:56:28.284Z,99456.07
2022-09-15T00:59:16.856Z,99448.95
2022-09-15T01:02:15.130Z,99431.21
2022-09-15T01:04:49.193Z,99434.84
2022-09-15T01:07:28.604Z,99435.83
2022-09-15T01:10:06.746Z,99443.75
2022-09-15T01:12:43.269Z,99449.66
2022-09-15T01:15:17.730Z,99450.56
2022-09-15T01:18:17.346Z,99451.84
2022-09-15T01:21:10.762Z,99440.48
2022-09-15T01:24:05.741Z,99457.66
2022-09-15T01:26:56.351Z,99443.83
2022-09-15T01:29:42.980Z,99437.64
2022-09-15T01:32:43.432Z,99441.75
2022-09-15T01:35:43.870Z,99439.65
2022-09-15T01:38:41.254Z,99432.55
2022-09-15T01:41:44.459Z,99436.72
2022-09-15T01:44:31.414Z,99449.23
2022-09-15T01:47:10.701Z,99442.98
2022-09-15T01:49:55.533Z,99448.54
2022-09-15T01:52:29.995Z,99442.13
2022-09-15T01:55:10.154Z,99432.85
2022-09-15T01:57:46.271Z,99426.71
2022-09-15T02:00:23.132Z,99419.39
2022-09-15T02:03:05.721Z,99417.50
2022-09-15T02:05:50.873Z,99403.81
2022-09-15T02:08:43.570Z,99392.12
2022-09-15T02:11:30.412Z,99390.23
2022-09-15T02:14:18.308Z,99375.56
2022-09-15T02:17:02.152Z,99375.33
2022-09-15T02:19:49.594Z,99361.57
2022-09-15T02:22:28.922Z,99365.61
2022-09-15T02:25:15.262Z,99362.12
2022-09-15T02:27:53.321Z,99363.48
2022-09-15T02:30:28.455Z,99360.27
2022-09-15T02:33:08.929Z,99367.98
2022-09-15T02:35:44.990Z,99380.75
2022-09-15T02:38:18.557Z,99384.85
2022-09-15T02:40:51.915Z,99390.30
2022-09-15T02:43:25.272Z,99397.00
2022-09-15T02:45:58.707Z,99398.13
2022-09-15T02:48:42.253Z,99394.80
2022-09-15T02:51:15.779Z,99386.83
2022-09-15T02:53:49.075Z,99384.95
2022-09-15T02:56:22.771Z,99388.05
2022-09-15T02:58:56.122Z,99374.38
2022-09-15T03:01:40.149Z,99372.93
2022-09-15T03:04:14.364Z,99364.80
2022-09-15T03:06:47.551Z,99357.83
2022-09-15T03:09:20.451Z,99348.33
2022-09-15T03:11:54.061Z,99358.65
2022-09-15T03:14:28.210Z,99352.46
2022-09-15T03:17:05.144Z,99350.23
2022-09-15T03:19:41.330Z,99335.23
2022-09-15T03:22:14.741Z,99329.13
2022-09-15T03:24:48.550Z,99339.48
2022-09-15T03:28:12.626Z,99342.60
2022-09-15T03:30:19.438Z,99349.27
2022-09-15T03:32:52.904Z,99360.03
2022-09-15T03:35:26.167Z,99360.80
2022-09-15T03:37:59.424Z,99352.91
2022-09-15T03:40:34.280Z,99331.81
2022-09-15T03:43:07.527Z,99339.83
2022-09-15T03:45:41.965Z,99348.61
2022-09-15T03:48:16.052Z,99345.27
2022-09-15T03:50:49.969Z,99355.30
2022-09-15T03:53:25.329Z,99352.16
2022-09-15T03:56:13.659Z,99349.67
2022-09-15T03:58:48.788Z,99351.05
2022-09-15T04:01:24.260Z,99340.39
2022-09-15T04:04:00.061Z,99338.88
2022-09-15T04:06:36.543Z,99342.48
2022-09-15T04:09:09.594Z,99355.78
2022-09-15T04:11:43.523Z,99359.53
2022-09-15T04:14:16.542Z,99356.25
2022-09-15T04:16:50.014Z,99362.91
2022-09-15T04:19:23.448Z,99353.01
2022-09-15T04:21:56.687Z,99349.49
2022-09-15T04:24:34.245Z,99340.32
2022-09-15T04:27:07.936Z,99331.39
2022-09-15T04:29:42.851Z,99333.95
2022-09-15T04:32:16.704Z,99338.79
2022-09-15T04:34:50.351Z,99329.66
2022-09-15T04:37:23.848Z,99331.12
2022-09-15T04:39:57.635Z,99329.83
2022-09-15T04:42:32.312Z,99335.88
2022-09-15T04:45:06.241Z,99331.96
2022-09-15T04:47:39.903Z,99332.46
2022-09-15T04:50:13.914Z,99327.14
2022-09-15T04:52:47.644Z,99340.33
2022-09-15T04:55:21.349Z,99341.37
2022-09-15T04:57:56.074Z,99337.68
2022-09-15T05:00:29.279Z,99334.48
2022-09-15T05:03:03.342Z,99328.83
2022-09-15T05:05:37.958Z,99324.05
2022-09-15T05:08:11.757Z,99317.84
2022-09-15T05:10:45.987Z,99315.91
2022-09-15T05:13:19.467Z,99304.08
2022-09-15T05:15:53.011Z,99304.41
2022-09-15T05:18:27.054Z,99303.87
2022-09-15T05:21:04.040Z,99309.05
2022-09-15T05:23:37.985Z,99295.13
2022-09-15T05:26:14.377Z,99296.59
2022-09-15T05:28:48.230Z,99289.54
2022-09-15T05:31:35.330Z,99270.01
2022-09-15T05:34:09.677Z,99270.59
2022-09-15T05:36:44.913Z,99278.77
2022-09-15T05:39:18.401Z,99277.48
2022-09-15T05:41:51.944Z,99271.28
2022-09-15T05:44:27.281Z,99283.04
2022-09-15T05:47:01.078Z,99278.89
2022-09-15T05:49:34.700Z,99258.81
2022-09-15T05:52:08.438Z,99250.23
2022-09-15T05:54:42.225Z,99265.80
2022-09-15T05:57:15.666Z,99258.50
2022-09-15T05:59:49.569Z,99263.73
2022-09-15T06:02:27.282Z,99255.30
2022-09-15T06:05:00.336Z,99254.16
2022-09-15T06:07:35.143Z,99266.39
2022-09-15T06:10:09.945Z,99259.10
2022-09-15T06:12:43.901Z,99256.89
2022-09-15T06:15:18.627Z,99262.14
2022-09-15T06:17:54.342Z,99260.82
2022-09-15T06:20:29.435Z,99260.91
2022-09-15T06:23:07.297Z,99260.96
2022-09-15T06:25:40.598Z,99253.48
2022-09-15T06:28:13.904Z,99267.21
2022-09-15T06:30:50.111Z,99268.22
2022-09-15T06:33:23.365Z,99253.83
2022-09-15T06:35:56.906Z,99265.04
2022-09-15T06:38:30.661Z,99257.03
2022-09-15T06:41:04.000Z,99249.56
2022-09-15T06:43:39.333Z,99245.65
2022-09-15T06:46:15.723Z,99250.42
2022-09-15T06:48:50.082Z,99249.14
2022-09-15T06:51:26.312Z,99250.30
2022-09-15T06:54:00.241Z,99259.76
2022-09-15T06:56:43.612Z,99249.61
2022-09-15T06:59:19.416Z,99258.58
2022-09-15T07:02:04.940Z,99257.83
2022-09-15T07:04:46.135Z,99258.61
2022-09-15T07:07:20.876Z,99254.60
2022-09-15T07:09:54.649Z,99244.12
2022-09-15T07:12:28.765Z,99251.48
2022-09-15T07:15:02.736Z,99251.70
2022-09-15T07:17:38.107Z,99248.84
2022-09-15T07:20:11.888Z,99245.68
2022-09-15T07:22:46.000Z,99236.67
2022-09-15T07:25:19.476Z,99235.54
2022-09-15T07:27:53.206Z,99232.00
2022-09-15T07:30:30.555Z,99232.05
2022-09-15T07:33:07.880Z,99235.23
2022-09-15T07:35:46.143Z,99232.13
2022-09-15T07:38:23.165Z,99237.88
2022-09-15T07:40:57.384Z,99235.42
2022-09-15T07:43:34.208Z,99240.11
2022-09-15T07:46:08.429Z,99237.14
2022-09-15T07:48:42.079Z,99237.58
2022-09-15T07:51:16.170Z,99236.71
2022-09-15T07:53:51.062Z,99242.31
2022-09-15T07:56:26.021Z,99234.38
2022-09-15T07:59:00.297Z,99235.69
2022-09-15T08:01:34.117Z,99238.27
2022-09-15T08:04:07.541Z,99234.10
2022-09-15T08:06:40.621Z,99250.58
2022-09-15T08:09:18.278Z,99258.40
2022-09-15T08:11:51.602Z,99257.59
2022-09-15T08:14:25.064Z,99256.73
2022-09-15T08:17:10.739Z,99259.40
2022-09-15T08:19:46.791Z,99264.55
2022-09-15T08:22:20.335Z,99265.23
2022-09-15T08:24:53.268Z,99264.18
2022-09-15T08:27:26.649Z,99258.52
2022-09-15T08:30:00.399Z,99258.47
2022-09-15T08:32:34.212Z,99255.92
2022-09-15T08:35:09.454Z,99253.17
2022-09-15T08:37:43.117Z,99263.09
2022-09-15T08:40:30.916Z,99267.77
2022-09-15T08:43:11.200Z,99261.67
2022-09-15T08:45:59.193Z,99262.34
2022-09-15T08:48:48.675Z,99260.23
2022-09-15T08:51:33.052Z,99254.74
2022-09-15T08:54:12.572Z,99249.94
2022-09-15T08:56:47.124Z,99234.42
2022-09-15T08:59:22.023Z,99236.92
2022-09-15T09:02:17.397Z,99237.77
2022-09-15T09:05:09.793Z,99239.40
2022-09-15T09:08:01.794Z,99239.64
2022-09-15T09:10:54.617Z,99239.33
2022-09-15T09:14:01.890Z,99235.38
2022-09-15T09:16:52.150Z,99224.96
2022-09-15T09:19:40.220Z,99215.21
2022-09-15T09:22:19.878Z,99214.69
2022-09-15T09:24:58.682Z,99215.58
2022-09-15T09:27:36.337Z,99212.79
2022-09-15T09:30:21.544Z,99223.31
2022-09-15T09:33:21.338Z,99229.99
2022-09-15T09:35:55.187Z,99231.73
2022-09-15T09:38:40.572Z,99226.92
2022-09-15T09:41:37.968Z,99227.61
2022-09-15T09:44:16.982Z,99217.38
2022-09-15T09:46:50.845Z,99227.95
2022-09-15T09:49:28.069Z,99236.23
2022-09-15T09:52:04.159Z,99241.80
2022-09-15T09:54:38.276Z,99240.11
2022-09-15T09:57:17.294Z,99246.17
2022-09-15T09:59:52.438Z,99244.54
2022-09-15T10:02:30.045Z,99246.86
2022-09-15T10:05:08.434Z,99246.86
2022-09-15T10:07:47.466Z,99251.87
2022-09-15T10:10:25.831Z,99253.64
2022-09-15T10:12:59.975Z,99251.36
2022-09-15T10:15:42.666Z,99244.52
2022-09-15T10:18:40.711Z,99244.50
2022-09-15T10:21:17.162Z,99242.30
2022-09-15T10:23:50.749Z,99235.10
2022-09-15T10:26:36.299Z,99227.61
2022-09-15T10:29:18.044Z,99220.60
2022-09-15T10:31:51.425Z,99207.22
2022-09-15T10:34:32.921Z,99197.27
2022-09-15T10:37:16.449Z,99199.86
2022-09-15T10:40:00.626Z,99206.61
2022-09-15T10:42:54.541Z,99197.20
2022-09-15T10:45:41.358Z,99188.70
2022-09-15T10:48:44.405Z,99181.09
2022-09-15T10:51:28.660Z,99185.30
2022-09-15T10:54:44.504Z,99175.51
2022-09-15T10:57:54.845Z,99192.05
2022-09-15T11:00:40.532Z,99191.89
2022-09-15T11:03:41.988Z,99199.26
2022-09-15T11:06:31.632Z,99207.34
2022-09-15T11:09:20.786Z,99218.48
2022-09-15T11:12:35.187Z,99212.17
2022-09-15T11:15:24.812Z,99207.55
2022-09-15T11:18:30.743Z,99195.86
2022-09-15T11:21:09.286Z,99186.64
2022-09-15T11:24:17.268Z,99178.52
2022-09-15T11:27:00.343Z,99182.00
2022-09-15T11:29:59.944Z,99183.56
2022-09-15T11:32:40.924Z,99171.77
2022-09-15T11:35:42.693Z,99170.29
2022-09-15T11:38:38.845Z,99167.09
2022-09-15T11:41:31.516Z,99163.92
2022-09-15T11:44:33.095Z,99170.04
2022-09-15T11:47:30.441Z,99168.23
2022-09-15T11:50:14.831Z,99169.80
2022-09-15T11:53:01.488Z,99163.48
2022-09-15T11:55:42.502Z,99173.52
2022-09-15T11:58:52.470Z,99175.95
2022-09-15T12:01:32.245Z,99194.65
2022-09-15T12:04:15.187Z,99196.39
2022-09-15T12:07:21.840Z,99192.73
2022-09-15T12:09:55.454Z,99197.64
2022-09-15T12:12:30.785Z,99204.05
2022-09-15T12:15:04.637Z,99209.39
2022-09-15T12:18:06.721Z,99210.30
2022-09-15T12:21:14.580Z,99210.95
2022-09-15T12:24:12.178Z,99217.07
2022-09-15T12:26:47.197Z,99219.30
2022-09-15T12:29:29.409Z,99219.05
2022-09-15T12:32:25.172Z,99209.02
2022-09-15T12:35:13.393Z,99212.30
2022-09-15T12:38:05.207Z,99211.61
2022-09-15T12:40:40.901Z,99216.30
2022-09-15T12:43:23.494Z,99209.27
2022-09-15T12:46:00.858Z,99202.92
2022-09-15T12:48:38.451Z,99193.07
2022-09-15T12:51:13.745Z,99191.46
2022-09-15T12:54:09.938Z,99197.84
2022-09-15T12:56:52.228Z,99205.06
2022-09-15T12:59:28.560Z,99204.86
2022-09-15T13:02:03.009Z,99203.46
2022-09-15T13:04:44.560Z,99203.20
2022-09-15T13:07:21.542Z,99201.73
2022-09-15T13:10:16.408Z,99208.23
2022-09-15T13:12:56.494Z,99212.74
2022-09-15T13:15:30.697Z,99212.77
2022-09-15T13:18:08.042Z,99212.13
2022-09-15T13:20:45.703Z,99214.36
2022-09-15T13:23:24.395Z,99217.88
2022-09-15T13:26:01.895Z,99231.95
2022-09-15T13:28:35.900Z,99239.94
2022-09-15T13:31:13.329Z,99247.61
2022-09-15T13:40:35.605Z,99233.49
2022-09-15T13:43:40.807Z,99235.05
2022-09-15T13:46:41.130Z,99231.21
2022-09-15T13:49:37.216Z,99236.70
2022-09-15T13:52:26.392Z,99235.64
2022-09-15T13:55:22.019Z,99226.52
2022-09-15T14:01:04.389Z,99248.46
2022-09-15T14:03:46.230Z,99246.90
2022-09-15T14:06:37.826Z,99241.61
2022-09-15T14:09:17.807Z,99240.34
2022-09-15T14:11:58.293Z,99232.40
2022-09-15T14:14:34.600Z,99231.68
2022-09-15T14:17:07.948Z,99232.38
2022-09-15T14:19:44.293Z,99237.93
2022-09-15T14:22:36.617Z,99245.92
2022-09-15T14:25:09.675Z,99250.52
2022-09-15T14:27:50.334Z,99247.35
2022-09-15T14:30:28.936Z,99247.91
2022-09-15T14:33:04.633Z,99242.23
2022-09-15T14:35:41.278Z,99240.21
2022-09-15T14:38:26.150Z,99236.07
2022-09-15T14:41:02.266Z,99230.81
2022-09-15T14:43:43.402Z,99225.91
2022-09-15T14:46:21.503Z,99228.82
2022-09-15T14:48:54.582Z,99230.64
2022-09-15T14:51:33.999Z,99227.43
2022-09-15T14:54:15.702Z,99220.65
2022-09-15T14:56:51.222Z,99216.64
2022-09-15T14:59:33.307Z,99220.96
2022-09-15T15:02:27.671Z,99230.25
2022-09-15T15:05:13.540Z,99233.57
2022-09-15T15:07:47.849Z,99219.14
2022-09-15T15:10:35.661Z,99233.38
2022-09-15T15:13:20.389Z,99234.06
2022-09-15T15:15:53.755Z,99230.55
2022-09-15T15:18:57.526Z,99240.52
2022-09-15T15:21:43.604Z,99249.52
2022-09-15T15:24:17.099Z,99243.95
2022-09-15T15:26:52.383Z,99246.77
2022-09-15T15:29:48.539Z,99244.33
2022-09-15T15:32:25.747Z,99244.90
2022-09-15T15:35:03.653Z,99233.48
2022-09-15T15:37:37.628Z,99245.12
2022-09-15T15:40:20.954Z,99237.34
2022-09-15T15:43:00.125Z,99242.64
2022-09-15T15:45:35.717Z,99244.17
2022-09-15T15:48:13.145Z,99246.16
2022-09-15T15:50:49.868Z,99248.21
2022-09-15T15:53:22.717Z,99250.91
2022-09-15T15:55:56.249Z,99252.81
2022-09-15T15:58:28.931Z,99261.55
2022-09-15T16:01:02.108Z,99261.39
2022-09-15T16:03:35.673Z,99259.93
2022-09-15T16:06:08.897Z,99255.28
2022-09-15T16:08:45.177Z,99257.09
2022-09-15T16:11:20.355Z,99255.84
2022-09-15T16:13:53.917Z,99254.21
2022-09-15T16:16:29.809Z,99246.38
2022-09-15T16:19:03.069Z,99233.84
2022-09-15T16:21:40.847Z,99237.41
2022-09-15T16:24:17.789Z,99238.85
2022-09-15T16:26:53.786Z,99235.41
2022-09-15T16:29:32.071Z,99230.09
2022-09-15T16:32:06.465Z,99223.63
2022-09-15T16:34:39.359Z,99226.03
2022-09-15T16:37:12.163Z,99234.23
2022-09-15T16:39:48.107Z,99227.59
2022-09-15T16:45:24.533Z,99242.09
2022-09-15T16:47:57.907Z,99236.13
2022-09-15T16:50:34.101Z,99243.05
2022-09-15T16:53:09.861Z,99242.08
2022-09-15T16:55:51.683Z,99241.23
2022-09-15T16:58:24.043Z,99234.27
2022-09-15T17:00:58.488Z,99235.39
2022-09-15T17:03:35.933Z,99237.98
2022-09-15T17:06:14.436Z,99236.19
2022-09-15T17:08:51.103Z,99235.63
2022-09-15T17:11:28.397Z,99238.39
2022-09-15T17:14:02.012Z,99230.52
2022-09-15T17:16:35.848Z,99246.61
2022-09-15T17:19:10.152Z,99239.46
2022-09-15T17:21:44.867Z,99245.55
2022-09-15T17:24:18.223Z,99247.11
2022-09-15T17:26:51.707Z,99247.91
2022-09-15T17:29:26.234Z,99244.69
2022-09-15T17:32:07.280Z,99264.58
2022-09-15T17:34:56.198Z,99269.95
2022-09-15T17:37:30.353Z,99265.91
2022-09-15T17:40:08.438Z,99265.38
2022-09-15T17:42:42.794Z,99271.72
2022-09-15T17:45:44.185Z,99259.11
2022-09-15T17:48:19.616Z,99276.94
2022-09-15T17:50:54.004Z,99275.13
2022-09-15T17:53:29.093Z,99270.98
2022-09-15T17:56:03.335Z,99269.22
2022-09-15T17:58:36.021Z,99268.52
2022-09-15T18:01:09.916Z,99270.11
2022-09-15T18:03:49.267Z,99263.17
2022-09-15T18:06:27.139Z,99258.09
2022-09-15T18:09:01.280Z,99264.27
2022-09-15T18:11:36.311Z,99267.10
2022-09-15T18:14:11.542Z,99262.48
2022-09-15T18:16:45.920Z,99260.43
2022-09-15T18:19:21.585Z,99256.86
2022-09-15T18:21:56.517Z,99249.86
2022-09-15T18:24:29.845Z,99236.77
2022-09-15T18:27:03.596Z,99236.39
2022-09-15T18:29:37.201Z,99243.14
2022-09-15T18:32:11.209Z,99242.45
2022-09-15T18:34:44.461Z,99237.17
2022-09-15T18:37:25.190Z,99234.86
2022-09-15T18:40:01.313Z,99229.78
2022-09-15T18:42:42.400Z,99231.10
2022-09-15T18:45:21.527Z,99234.85
2022-09-15T18:47:56.573Z,99228.41
2022-09-15T18:50:56.622Z,99232.05
2022-09-15T18:53:30.788Z,99225.79
2022-09-15T18:56:11.250Z,99229.22
2022-09-15T18:58:44.826Z,99228.48
2022-09-15T19:01:18.678Z,99207.37
2022-09-15T19:03:53.800Z,99211.39
2022-09-15T19:06:27.213Z,99215.49
2022-09-15T19:09:01.637Z,99209.04
2022-09-15T19:11:35.611Z,99205.56
2022-09-15T19:14:08.595Z,99207.86
2022-09-15T19:16:57.218Z,99206.34
2022-09-15T19:19:34.184Z,99212.02
2022-09-15T19:22:11.831Z,99220.76
2022-09-15T19:24:45.179Z,99218.81
2022-09-15T19:27:21.909Z,99214.77
2022-09-15T19:29:57.334Z,99217.89
2022-09-15T19:32:33.156Z,99214.88
2022-09-15T19:35:06.743Z,99208.45
2022-09-15T19:37:42.552Z,99212.15
2022-09-15T19:40:17.823Z,99202.66
2022-09-15T19:42:56.875Z,99205.14
2022-09-15T19:45:31.304Z,99203.36
2022-09-15T19:48:09.198Z,99203.18
2022-09-15T19:50:43.282Z,99199.27
2022-09-15T19:53:16.914Z,99189.23
2022-09-15T19:55:59.414Z,99188.30
2022-09-15T19:58:33.814Z,99198.11
2022-09-15T20:01:08.414Z,99197.52
2022-09-15T20:03:47.509Z,99199.91
2022-09-15T20:06:32.534Z,99189.33
2022-09-15T20:09:10.707Z,99191.73
2022-09-15T20:11:48.932Z,99191.60
2022-09-15T20:14:26.238Z,99182.61
2022-09-15T20:17:02.556Z,99175.08
2022-09-15T20:19:37.668Z,99166.05
2022-09-15T20:22:10.656Z,99172.08
2022-09-15T20:24:44.290Z,99166.25
2022-09-15T20:27:19.513Z,99149.38
2022-09-15T20:29:54.434Z,99157.01
2022-09-15T20:32:29.962Z,99148.73
2022-09-15T20:35:03.704Z,99138.67
2022-09-15T20:37:37.768Z,99137.45
2022-09-15T20:40:12.108Z,99140.90
2022-09-15T20:42:51.020Z,99149.75
2022-09-15T20:45:24.963Z,99148.64
2022-09-15T20:48:01.212Z,99145.23
2022-09-15T20:50:35.521Z,99137.33
2022-09-15T20:53:09.211Z,99124.50
2022-09-15T20:55:42.786Z,99126.77
2022-09-15T20:58:16.253Z,99136.55
2022-09-15T21:00:50.033Z,99129.49
2022-09-15T21:03:29.130Z,99132.17
2022-09-15T21:06:12.147Z,99137.49
2022-09-15T21:08:50.699Z,99145.14
2022-09-15T21:11:25.752Z,99143.66
2022-09-15T21:14:03.413Z,99142.48
2022-09-15T21:16:40.284Z,99143.70
2022-09-15T21:19:16.281Z,99132.64
2022-09-15T21:21:50.166Z,99139.19
2022-09-15T21:24:24.500Z,99123.13
2022-09-15T21:27:16.125Z,99136.14
2022-09-15T21:29:49.463Z,99136.04
2022-09-15T21:32:22.356Z,99136.25
2022-09-15T21:34:56.416Z,99127.54
2022-09-15T21:37:29.758Z,99121.92
2022-09-15T21:40:03.699Z,99119.23
2022-09-15T21:42:39.805Z,99105.92
2022-09-15T21:45:13.069Z,99121.52
2022-09-15T21:47:46.328Z,99119.99
2022-09-15T21:50:19.631Z,99126.93
2022-09-15T21:52:52.212Z,99130.36
2022-09-15T21:55:25.630Z,99115.85
2022-09-15T21:57:58.836Z,99125.58
2022-09-15T22:00:35.064Z,99120.46
2022-09-15T22:03:09.580Z,99107.60
2022-09-15T22:05:47.686Z,99102.61
2022-09-15T22:08:20.651Z,99106.20
2022-09-15T22:11:00.306Z,99114.20
2022-09-15T22:13:41.070Z,99108.63
2022-09-15T22:16:20.848Z,99105.03
2022-09-15T22:18:54.572Z,99107.45
2022-09-15T22:21:32.955Z,99103.66
2022-09-15T22:24:07.510Z,99111.89
2022-09-15T22:26:42.101Z,99099.55
2022-09-15T22:29:15.742Z,99104.73
2022-09-15T22:31:49.327Z,99110.77
2022-09-15T22:34:22.452Z,99113.19
2022-09-15T22:36:55.019Z,99104.54
2022-09-15T22:39:50.292Z,99092.65
2022-09-15T22:42:22.258Z,99086.52
2022-09-15T22:44:55.467Z,99077.96
2022-09-15T22:47:29.702Z,99073.61
2022-09-15T22:50:04.826Z,99082.85
2022-09-15T22:52:43.709Z,99086.04
2022-09-15T22:55:20.829Z,99079.27
2022-09-15T22:57:56.762Z,99071.77
2022-09-15T23:00:30.023Z,99061.48
2022-09-15T23:03:03.809Z,99068.02
2022-09-15T23:05:38.517Z,99055.71
2022-09-15T23:08:12.782Z,99054.80
2022-09-15T23:10:47.324Z,99064.35
2022-09-15T23:13:21.430Z,99055.25
2022-09-15T23:15:55.102Z,99047.88
2022-09-15T23:18:29.626Z,99046.02
2022-09-15T23:21:10.990Z,99046.67
2022-09-15T23:23:47.213Z,99042.73
2022-09-15T23:26:22.736Z,99031.02
2022-09-15T23:28:55.857Z,99040.54
2022-09-15T23:31:28.625Z,99032.33
2022-09-15T23:34:02.687Z,99026.39
2022-09-15T23:36:35.981Z,99030.84
2022-09-15T23:39:08.852Z,99035.58
2022-09-15T23:41:42.651Z,99037.36
2022-09-15T23:44:16.073Z,99030.79
2022-09-15T23:49:42.933Z,99029.41
2022-09-15T23:52:19.239Z,99021.80
2022-09-15T23:54:55.004Z,99021.97
2022-09-15T23:57:29.147Z,99017.45
